sensor_id;sensor_type;location;lat;lon;timestamp;temperature;humidity
17333;DHT22;8784;50.94667800;7.08448400;2023-02-03T00:01:58;10.40;99.90
17333;DHT22;8784;50.94667800;7.08448400;2023-02-03T00:04:26;10.50;99.90
17333;DHT22;8784;50.94667800;7.08448400;2023-02-03T00:06:53;10.40;99.90
17333;DHT22;8784;50.94667800;7.08448400;2023-02-03T00:09:20;10.40;99.90
17333;DHT22;8784;50.94667800;7.08448400;2023-02-03T00:11:47;10.40;99.90
17333;DHT22;8784;50.94667800;7.08448400;2023-02-03T00:14:14;10.30;99.90
17333;DHT22;8784;50.94667800;7.08448400;2023-02-03T00:16:41;10.30;99.90
17333;DHT22;8784;50.94667800;7.08448400;2023-02-03T00:19:08;10.40;99.90
17333;DHT22;8784;50.94667800;7.08448400;2023-02-03T00:21:36;10.40;99.90
17333;DHT22;8784;50.94667800;7.08448400;2023-02-03T00:24:04;10.40;99.90
17333;DHT22;8784;50.94667800;7.08448400;2023-02-03T00:26:31;10.30;99.90
17333;DHT22;8784;50.94667800;7.08448400;2023-02-03T00:28:58;10.40;99.90
17333;DHT22;8784;50.94667800;7.08448400;2023-02-03T00:31:25;10.40;99.90
17333;DHT22;8784;50.94667800;7.08448400;2023-02-03T00:33:56;10.30;99.90
17333;DHT22;8784;50.94667800;7.08448400;2023-02-03T00:36:23;10.40;99.90
17333;DHT22;8784;50.94667800;7.08448400;2023-02-03T00:38:51;10.40;99.90
17333;DHT22;8784;50.94667800;7.08448400;2023-02-03T00:41:20;10.40;99.90
17333;DHT22;8784;50.94667800;7.08448400;2023-02-03T00:43:47;10.30;99.90
17333;DHT22;8784;50.94667800;7.08448400;2023-02-03T00:46:14;10.30;99.90
17333;DHT22;8784;50.94667800;7.08448400;2023-02-03T00:48:41;10.40;99.90
17333;DHT22;8784;50.94667800;7.08448400;2023-02-03T00:51:08;10.40;99.90
17333;DHT22;8784;50.94667800;7.08448400;2023-02-03T00:53:34;10.40;99.90
17333;DHT22;8784;50.94667800;7.08448400;2023-02-03T00:56:03;10.40;99.90
17333;DHT22;8784;50.94667800;7.08448400;2023-02-03T00:58:37;10.40;99.90
17333;DHT22;8784;50.94667800;7.08448400;2023-02-03T01:01:04;10.40;99.90
17333;DHT22;8784;50.94667800;7.08448400;2023-02-03T01:03:31;10.40;99.90
17333;DHT22;8784;50.94667800;7.08448400;2023-02-03T01:06:08;10.40;99.90
17333;DHT22;8784;50.94667800;7.08448400;2023-02-03T01:08:35;10.40;99.90
17333;DHT22;8784;50.94667800;7.08448400;2023-02-03T01:11:07;10.50;99.90
17333;DHT22;8784;50.94667800;7.08448400;2023-02-03T01:13:34;10.40;99.90
17333;DHT22;8784;50.94667800;7.08448400;2023-02-03T01:16:01;10.40;99.90
17333;DHT22;8784;50.94667800;7.08448400;2023-02-03T01:18:28;10.40;99.90
17333;DHT22;8784;50.94667800;7.08448400;2023-02-03T01:20:54;10.40;99.90
17333;DHT22;8784;50.94667800;7.08448400;2023-02-03T01:23:21;10.40;99.90
17333;DHT22;8784;50.94667800;7.08448400;2023-02-03T01:25:48;10.50;99.90
17333;DHT22;8784;50.94667800;7.08448400;2023-02-03T01:28:16;10.40;99.90
17333;DHT22;8784;50.94667800;7.08448400;2023-02-03T01:30:43;10.40;99.90
17333;DHT22;8784;50.94667800;7.08448400;2023-02-03T01:33:10;10.50;99.90
17333;DHT22;8784;50.94667800;7.08448400;2023-02-03T01:35:37;10.50;99.90
17333;DHT22;8784;50.94667800;7.08448400;2023-02-03T01:38:04;10.40;99.90
17333;DHT22;8784;50.94667800;7.08448400;2023-02-03T01:40:31;10.40;99.90
17333;DHT22;8784;50.94667800;7.08448400;2023-02-03T01:42:59;10.50;99.90
17333;DHT22;8784;50.94667800;7.08448400;2023-02-03T01:45:27;10.40;99.90
17333;DHT22;8784;50.94667800;7.08448400;2023-02-03T01:47:57;10.40;99.90
17333;DHT22;8784;50.94667800;7.08448400;2023-02-03T01:50:28;10.50;99.90
17333;DHT22;8784;50.94667800;7.08448400;2023-02-03T01:53:00;10.40;99.90
17333;DHT22;8784;50.94667800;7.08448400;2023-02-03T01:55:33;10.40;99.90
17333;DHT22;8784;50.94667800;7.08448400;2023-02-03T01:58:03;10.40;99.90
17333;DHT22;8784;50.94667800;7.08448400;2023-02-03T02:00:32;10.40;99.90
17333;DHT22;8784;50.94667800;7.08448400;2023-02-03T02:03:01;10.50;99.90
17333;DHT22;8784;50.94667800;7.08448400;2023-02-03T02:05:33;10.50;99.90
17333;DHT22;8784;50.94667800;7.08448400;2023-02-03T02:08:02;10.50;99.90
17333;DHT22;8784;50.94667800;7.08448400;2023-02-03T02:10:30;10.50;99.90
17333;DHT22;8784;50.94667800;7.08448400;2023-02-03T02:12:58;10.50;99.90
17333;DHT22;8784;50.94667800;7.08448400;2023-02-03T02:15:38;10.40;99.90
17333;DHT22;8784;50.94667800;7.08448400;2023-02-03T02:18:18;10.40;99.90
17333;DHT22;8784;50.94667800;7.08448400;2023-02-03T02:27:06;10.50;99.90
17333;DHT22;8784;50.94667800;7.08448400;2023-02-03T02:30:05;10.50;99.90
17333;DHT22;8784;50.94667800;7.08448400;2023-02-03T02:32:46;10.50;99.90
17333;DHT22;8784;50.94667800;7.08448400;2023-02-03T02:35:20;10.50;99.90
17333;DHT22;8784;50.94667800;7.08448400;2023-02-03T02:37:52;10.50;99.90
17333;DHT22;8784;50.94667800;7.08448400;2023-02-03T02:40:30;10.50;99.90
17333;DHT22;8784;50.94667800;7.08448400;2023-02-03T02:43:05;10.50;99.90
17333;DHT22;8784;50.94667800;7.08448400;2023-02-03T02:45:40;10.50;99.90
17333;DHT22;8784;50.94667800;7.08448400;2023-02-03T02:48:18;10.50;99.90
17333;DHT22;8784;50.94667800;7.08448400;2023-02-03T02:50:49;10.30;99.90
17333;DHT22;8784;50.94667800;7.08448400;2023-02-03T02:53:19;10.50;99.90
17333;DHT22;8784;50.94667800;7.08448400;2023-02-03T02:55:47;10.40;99.90
17333;DHT22;8784;50.94667800;7.08448400;2023-02-03T02:58:15;10.50;99.90
17333;DHT22;8784;50.94667800;7.08448400;2023-02-03T03:00:44;10.40;99.90
17333;DHT22;8784;50.94667800;7.08448400;2023-02-03T03:03:16;10.50;99.90
17333;DHT22;8784;50.94667800;7.08448400;2023-02-03T03:05:47;10.50;99.90
17333;DHT22;8784;50.94667800;7.08448400;2023-02-03T03:08:17;10.50;99.90
17333;DHT22;8784;50.94667800;7.08448400;2023-02-03T03:10:46;10.50;99.90
17333;DHT22;8784;50.94667800;7.08448400;2023-02-03T03:13:19;10.50;99.90
17333;DHT22;8784;50.94667800;7.08448400;2023-02-03T03:15:48;10.40;99.90
17333;DHT22;8784;50.94667800;7.08448400;2023-02-03T03:18:20;10.40;99.90
17333;DHT22;8784;50.94667800;7.08448400;2023-02-03T03:20:49;10.40;99.90
17333;DHT22;8784;50.94667800;7.08448400;2023-02-03T03:23:19;10.30;99.90
17333;DHT22;8784;50.94667800;7.08448400;2023-02-03T03:25:53;10.40;99.90
17333;DHT22;8784;50.94667800;7.08448400;2023-02-03T03:28:26;10.40;99.90
17333;DHT22;8784;50.94667800;7.08448400;2023-02-03T03:30:56;10.40;99.90
17333;DHT22;8784;50.94667800;7.08448400;2023-02-03T03:33:25;10.40;99.90
17333;DHT22;8784;50.94667800;7.08448400;2023-02-03T03:35:56;10.40;99.90
17333;DHT22;8784;50.94667800;7.08448400;2023-02-03T03:38:31;10.40;99.90
17333;DHT22;8784;50.94667800;7.08448400;2023-02-03T03:41:04;10.40;99.90
17333;DHT22;8784;50.94667800;7.08448400;2023-02-03T03:43:36;10.40;99.90
17333;DHT22;8784;50.94667800;7.08448400;2023-02-03T03:46:11;10.30;99.90
17333;DHT22;8784;50.94667800;7.08448400;2023-02-03T03:48:43;10.40;99.90
17333;DHT22;8784;50.94667800;7.08448400;2023-02-03T03:51:17;10.50;99.90
17333;DHT22;8784;50.94667800;7.08448400;2023-02-03T03:53:46;10.40;99.90
17333;DHT22;8784;50.94667800;7.08448400;2023-02-03T03:56:18;10.50;99.90
17333;DHT22;8784;50.94667800;7.08448400;2023-02-03T03:58:49;10.50;99.90
17333;DHT22;8784;50.94667800;7.08448400;2023-02-03T04:01:19;10.40;99.90
17333;DHT22;8784;50.94667800;7.08448400;2023-02-03T04:03:51;10.50;99.90
17333;DHT22;8784;50.94667800;7.08448400;2023-02-03T04:06:20;10.50;99.90
17333;DHT22;8784;50.94667800;7.08448400;2023-02-03T04:08:46;10.30;99.90
17333;DHT22;8784;50.94667800;7.08448400;2023-02-03T04:11:14;10.60;99.90
17333;DHT22;8784;50.94667800;7.08448400;2023-02-03T04:14:01;10.60;99.90
17333;DHT22;8784;50.94667800;7.08448400;2023-02-03T04:16:28;10.50;99.90
17333;DHT22;8784;50.94667800;7.08448400;2023-02-03T04:18:56;10.50;99.90
17333;DHT22;8784;50.94667800;7.08448400;2023-02-03T04:21:23;10.50;99.90
17333;DHT22;8784;50.94667800;7.08448400;2023-02-03T04:23:50;10.50;99.90
17333;DHT22;8784;50.94667800;7.08448400;2023-02-03T04:26:17;10.50;99.90
17333;DHT22;8784;50.94667800;7.08448400;2023-02-03T04:28:44;10.40;99.90
17333;DHT22;8784;50.94667800;7.08448400;2023-02-03T04:31:11;10.40;99.90
17333;DHT22;8784;50.94667800;7.08448400;2023-02-03T04:33:38;10.30;99.90
17333;DHT22;8784;50.94667800;7.08448400;2023-02-03T04:36:07;10.40;99.90
17333;DHT22;8784;50.94667800;7.08448400;2023-02-03T04:38:34;10.40;99.90
17333;DHT22;8784;50.94667800;7.08448400;2023-02-03T04:41:01;10.40;99.90
17333;DHT22;8784;50.94667800;7.08448400;2023-02-03T04:43:29;10.40;99.90
17333;DHT22;8784;50.94667800;7.08448400;2023-02-03T04:45:58;10.40;99.90
17333;DHT22;8784;50.94667800;7.08448400;2023-02-03T04:48:25;10.80;99.90
17333;DHT22;8784;50.94667800;7.08448400;2023-02-03T04:50:52;10.40;99.90
17333;DHT22;8784;50.94667800;7.08448400;2023-02-03T04:53:20;10.40;99.90
17333;DHT22;8784;50.94667800;7.08448400;2023-02-03T04:55:47;10.40;99.90
17333;DHT22;8784;50.94667800;7.08448400;2023-02-03T04:58:14;10.40;99.90
17333;DHT22;8784;50.94667800;7.08448400;2023-02-03T05:00:43;10.40;99.90
17333;DHT22;8784;50.94667800;7.08448400;2023-02-03T05:03:10;10.40;99.90
17333;DHT22;8784;50.94667800;7.08448400;2023-02-03T05:05:37;10.40;99.90
17333;DHT22;8784;50.94667800;7.08448400;2023-02-03T05:08:05;10.50;99.90
17333;DHT22;8784;50.94667800;7.08448400;2023-02-03T05:10:33;10.50;99.90
17333;DHT22;8784;50.94667800;7.08448400;2023-02-03T05:13:00;10.40;99.90
17333;DHT22;8784;50.94667800;7.08448400;2023-02-03T05:15:27;10.40;99.90
17333;DHT22;8784;50.94667800;7.08448400;2023-02-03T05:17:54;10.40;99.90
17333;DHT22;8784;50.94667800;7.08448400;2023-02-03T05:20:21;10.40;99.90
17333;DHT22;8784;50.94667800;7.08448400;2023-02-03T05:22:49;10.40;99.90
17333;DHT22;8784;50.94667800;7.08448400;2023-02-03T05:25:16;10.40;99.90
17333;DHT22;8784;50.94667800;7.08448400;2023-02-03T05:27:44;10.50;99.90
17333;DHT22;8784;50.94667800;7.08448400;2023-02-03T05:30:12;10.40;99.90
17333;DHT22;8784;50.94667800;7.08448400;2023-02-03T05:32:39;10.40;99.90
17333;DHT22;8784;50.94667800;7.08448400;2023-02-03T05:35:06;10.40;99.90
17333;DHT22;8784;50.94667800;7.08448400;2023-02-03T05:37:33;10.40;99.90
17333;DHT22;8784;50.94667800;7.08448400;2023-02-03T05:40:00;10.40;99.90
17333;DHT22;8784;50.94667800;7.08448400;2023-02-03T05:42:46;10.40;99.90
17333;DHT22;8784;50.94667800;7.08448400;2023-02-03T05:45:13;10.40;99.90
17333;DHT22;8784;50.94667800;7.08448400;2023-02-03T05:47:41;10.40;99.90
17333;DHT22;8784;50.94667800;7.08448400;2023-02-03T05:50:08;10.40;99.90
17333;DHT22;8784;50.94667800;7.08448400;2023-02-03T05:52:35;10.40;99.90
17333;DHT22;8784;50.94667800;7.08448400;2023-02-03T05:55:02;10.40;99.90
17333;DHT22;8784;50.94667800;7.08448400;2023-02-03T05:57:29;10.30;99.90
17333;DHT22;8784;50.94667800;7.08448400;2023-02-03T05:59:58;10.40;99.90
17333;DHT22;8784;50.94667800;7.08448400;2023-02-03T06:02:25;10.40;99.90
17333;DHT22;8784;50.94667800;7.08448400;2023-02-03T06:04:51;10.40;99.90
17333;DHT22;8784;50.94667800;7.08448400;2023-02-03T06:07:21;10.40;99.90
17333;DHT22;8784;50.94667800;7.08448400;2023-02-03T06:09:50;10.30;99.90
17333;DHT22;8784;50.94667800;7.08448400;2023-02-03T06:12:17;10.40;99.90
17333;DHT22;8784;50.94667800;7.08448400;2023-02-03T06:14:44;10.30;99.90
17333;DHT22;8784;50.94667800;7.08448400;2023-02-03T06:17:15;10.30;99.90
17333;DHT22;8784;50.94667800;7.08448400;2023-02-03T06:19:42;10.40;99.90
17333;DHT22;8784;50.94667800;7.08448400;2023-02-03T06:22:09;10.40;99.90
17333;DHT22;8784;50.94667800;7.08448400;2023-02-03T06:24:38;10.30;99.90
17333;DHT22;8784;50.94667800;7.08448400;2023-02-03T06:27:05;10.40;99.90
17333;DHT22;8784;50.94667800;7.08448400;2023-02-03T06:29:32;10.50;99.90
17333;DHT22;8784;50.94667800;7.08448400;2023-02-03T06:31:59;10.50;99.90
17333;DHT22;8784;50.94667800;7.08448400;2023-02-03T06:34:27;10.50;99.90
17333;DHT22;8784;50.94667800;7.08448400;2023-02-03T06:36:54;10.50;99.90
17333;DHT22;8784;50.94667800;7.08448400;2023-02-03T06:39:21;10.50;99.90
17333;DHT22;8784;50.94667800;7.08448400;2023-02-03T06:41:48;10.50;99.90
17333;DHT22;8784;50.94667800;7.08448400;2023-02-03T06:44:16;10.50;99.90
17333;DHT22;8784;50.94667800;7.08448400;2023-02-03T06:46:43;10.50;99.90
17333;DHT22;8784;50.94667800;7.08448400;2023-02-03T06:49:10;10.50;99.90
17333;DHT22;8784;50.94667800;7.08448400;2023-02-03T06:51:39;10.40;99.90
17333;DHT22;8784;50.94667800;7.08448400;2023-02-03T06:54:05;10.40;99.90
17333;DHT22;8784;50.94667800;7.08448400;2023-02-03T06:56:33;10.50;99.90
17333;DHT22;8784;50.94667800;7.08448400;2023-02-03T06:59:00;10.50;99.90
17333;DHT22;8784;50.94667800;7.08448400;2023-02-03T07:01:27;10.40;99.90
17333;DHT22;8784;50.94667800;7.08448400;2023-02-03T07:03:54;10.50;99.90
17333;DHT22;8784;50.94667800;7.08448400;2023-02-03T07:06:26;10.60;99.90
17333;DHT22;8784;50.94667800;7.08448400;2023-02-03T07:08:57;10.60;99.90
17333;DHT22;8784;50.94667800;7.08448400;2023-02-03T07:11:25;10.50;99.90
17333;DHT22;8784;50.94667800;7.08448400;2023-02-03T07:13:52;10.50;99.90
17333;DHT22;8784;50.94667800;7.08448400;2023-02-03T07:16:19;10.60;99.90
17333;DHT22;8784;50.94667800;7.08448400;2023-02-03T07:18:46;10.60;99.90
17333;DHT22;8784;50.94667800;7.08448400;2023-02-03T07:21:14;10.60;99.90
17333;DHT22;8784;50.94667800;7.08448400;2023-02-03T07:23:42;10.60;99.90
17333;DHT22;8784;50.94667800;7.08448400;2023-02-03T07:26:11;10.60;99.90
17333;DHT22;8784;50.94667800;7.08448400;2023-02-03T07:28:38;10.60;99.90
17333;DHT22;8784;50.94667800;7.08448400;2023-02-03T07:31:05;10.60;99.90
17333;DHT22;8784;50.94667800;7.08448400;2023-02-03T07:33:35;10.70;99.90
17333;DHT22;8784;50.94667800;7.08448400;2023-02-03T07:36:02;10.60;99.90
17333;DHT22;8784;50.94667800;7.08448400;2023-02-03T07:38:31;10.60;99.90
17333;DHT22;8784;50.94667800;7.08448400;2023-02-03T07:40:58;10.70;99.90
17333;DHT22;8784;50.94667800;7.08448400;2023-02-03T07:43:26;10.70;99.90
17333;DHT22;8784;50.94667800;7.08448400;2023-02-03T07:45:54;10.70;99.90
17333;DHT22;8784;50.94667800;7.08448400;2023-02-03T07:48:21;10.70;99.90
17333;DHT22;8784;50.94667800;7.08448400;2023-02-03T07:50:48;10.60;99.90
17333;DHT22;8784;50.94667800;7.08448400;2023-02-03T07:53:17;10.70;99.90
17333;DHT22;8784;50.94667800;7.08448400;2023-02-03T07:55:44;10.70;99.90
17333;DHT22;8784;50.94667800;7.08448400;2023-02-03T07:58:11;10.70;99.90
17333;DHT22;8784;50.94667800;7.08448400;2023-02-03T08:00:41;10.70;99.90
17333;DHT22;8784;50.94667800;7.08448400;2023-02-03T08:03:08;10.70;99.90
17333;DHT22;8784;50.94667800;7.08448400;2023-02-03T08:05:35;10.70;99.90
17333;DHT22;8784;50.94667800;7.08448400;2023-02-03T08:08:02;10.80;99.90
17333;DHT22;8784;50.94667800;7.08448400;2023-02-03T08:10:29;10.80;99.90
17333;DHT22;8784;50.94667800;7.08448400;2023-02-03T08:12:56;10.80;99.90
17333;DHT22;8784;50.94667800;7.08448400;2023-02-03T08:15:23;10.80;99.90
17333;DHT22;8784;50.94667800;7.08448400;2023-02-03T08:17:52;10.80;99.90
17333;DHT22;8784;50.94667800;7.08448400;2023-02-03T08:20:19;10.80;99.90
17333;DHT22;8784;50.94667800;7.08448400;2023-02-03T08:22:46;10.80;99.90
17333;DHT22;8784;50.94667800;7.08448400;2023-02-03T08:25:14;10.70;99.90
17333;DHT22;8784;50.94667800;7.08448400;2023-02-03T08:27:43;10.80;99.90
17333;DHT22;8784;50.94667800;7.08448400;2023-02-03T08:30:12;10.80;99.90
17333;DHT22;8784;50.94667800;7.08448400;2023-02-03T08:32:40;10.80;99.90
17333;DHT22;8784;50.94667800;7.08448400;2023-02-03T08:35:11;10.80;99.90
17333;DHT22;8784;50.94667800;7.08448400;2023-02-03T08:37:38;10.80;99.90
17333;DHT22;8784;50.94667800;7.08448400;2023-02-03T08:40:06;10.80;99.90
17333;DHT22;8784;50.94667800;7.08448400;2023-02-03T08:42:34;10.80;99.90
17333;DHT22;8784;50.94667800;7.08448400;2023-02-03T08:45:03;10.80;99.90
17333;DHT22;8784;50.94667800;7.08448400;2023-02-03T08:47:31;10.80;99.90
17333;DHT22;8784;50.94667800;7.08448400;2023-02-03T08:49:58;10.80;99.90
17333;DHT22;8784;50.94667800;7.08448400;2023-02-03T08:52:29;10.80;99.90
17333;DHT22;8784;50.94667800;7.08448400;2023-02-03T08:54:57;10.80;99.90
17333;DHT22;8784;50.94667800;7.08448400;2023-02-03T08:57:24;10.80;99.90
17333;DHT22;8784;50.94667800;7.08448400;2023-02-03T08:59:53;10.80;99.90
17333;DHT22;8784;50.94667800;7.08448400;2023-02-03T09:02:20;10.80;99.90
17333;DHT22;8784;50.94667800;7.08448400;2023-02-03T09:04:53;10.80;99.90
17333;DHT22;8784;50.94667800;7.08448400;2023-02-03T09:07:33;10.80;99.90
17333;DHT22;8784;50.94667800;7.08448400;2023-02-03T09:10:00;10.80;99.90
17333;DHT22;8784;50.94667800;7.08448400;2023-02-03T09:12:28;10.80;99.90
17333;DHT22;8784;50.94667800;7.08448400;2023-02-03T09:14:55;10.80;99.90
17333;DHT22;8784;50.94667800;7.08448400;2023-02-03T09:17:25;10.70;99.90
17333;DHT22;8784;50.94667800;7.08448400;2023-02-03T09:19:54;10.90;99.90
17333;DHT22;8784;50.94667800;7.08448400;2023-02-03T09:22:21;10.80;99.90
17333;DHT22;8784;50.94667800;7.08448400;2023-02-03T09:24:50;10.80;99.90
17333;DHT22;8784;50.94667800;7.08448400;2023-02-03T09:27:17;10.80;99.90
17333;DHT22;8784;50.94667800;7.08448400;2023-02-03T09:29:44;10.80;99.90
17333;DHT22;8784;50.94667800;7.08448400;2023-02-03T09:32:11;10.80;99.90
17333;DHT22;8784;50.94667800;7.08448400;2023-02-03T09:34:38;10.80;99.90
17333;DHT22;8784;50.94667800;7.08448400;2023-02-03T09:37:11;10.80;99.90
17333;DHT22;8784;50.94667800;7.08448400;2023-02-03T09:39:38;10.80;99.90
17333;DHT22;8784;50.94667800;7.08448400;2023-02-03T09:42:24;10.80;99.90
17333;DHT22;8784;50.94667800;7.08448400;2023-02-03T09:45:04;10.80;99.90
17333;DHT22;8784;50.94667800;7.08448400;2023-02-03T09:47:38;10.80;99.90
17333;DHT22;8784;50.94667800;7.08448400;2023-02-03T09:50:11;10.80;99.90
17333;DHT22;8784;50.94667800;7.08448400;2023-02-03T09:52:40;10.90;99.90
17333;DHT22;8784;50.94667800;7.08448400;2023-02-03T09:55:19;10.80;99.90
17333;DHT22;8784;50.94667800;7.08448400;2023-02-03T09:57:57;10.80;99.90
17333;DHT22;8784;50.94667800;7.08448400;2023-02-03T10:00:28;10.90;99.90
17333;DHT22;8784;50.94667800;7.08448400;2023-02-03T10:02:59;10.90;99.90
17333;DHT22;8784;50.94667800;7.08448400;2023-02-03T10:08:34;10.90;99.90
17333;DHT22;8784;50.94667800;7.08448400;2023-02-03T10:11:12;10.80;99.90
17333;DHT22;8784;50.94667800;7.08448400;2023-02-03T10:13:55;10.80;99.90
17333;DHT22;8784;50.94667800;7.08448400;2023-02-03T10:16:38;10.80;99.90
17333;DHT22;8784;50.94667800;7.08448400;2023-02-03T10:19:14;10.80;99.90
17333;DHT22;8784;50.94667800;7.08448400;2023-02-03T10:21:50;10.80;99.90
17333;DHT22;8784;50.94667800;7.08448400;2023-02-03T10:24:25;10.80;99.90
17333;DHT22;8784;50.94667800;7.08448400;2023-02-03T10:26:53;10.80;99.90
17333;DHT22;8784;50.94667800;7.08448400;2023-02-03T10:29:27;10.80;99.90
17333;DHT22;8784;50.94667800;7.08448400;2023-02-03T10:31:57;10.80;99.90
17333;DHT22;8784;50.94667800;7.08448400;2023-02-03T10:34:25;10.80;99.90
17333;DHT22;8784;50.94667800;7.08448400;2023-02-03T10:36:55;10.70;99.90
17333;DHT22;8784;50.94667800;7.08448400;2023-02-03T10:39:31;10.70;99.90
17333;DHT22;8784;50.94667800;7.08448400;2023-02-03T10:42:05;10.70;99.90
17333;DHT22;8784;50.94667800;7.08448400;2023-02-03T10:44:38;10.70;99.90
17333;DHT22;8784;50.94667800;7.08448400;2023-02-03T10:47:16;10.70;99.90
17333;DHT22;8784;50.94667800;7.08448400;2023-02-03T10:49:47;10.70;99.90
17333;DHT22;8784;50.94667800;7.08448400;2023-02-03T10:52:25;10.60;99.90
17333;DHT22;8784;50.94667800;7.08448400;2023-02-03T10:54:53;10.70;99.90
17333;DHT22;8784;50.94667800;7.08448400;2023-02-03T10:57:25;10.60;99.90
17333;DHT22;8784;50.94667800;7.08448400;2023-02-03T11:00:19;10.60;99.90
17333;DHT22;8784;50.94667800;7.08448400;2023-02-03T11:02:54;10.60;99.90
17333;DHT22;8784;50.94667800;7.08448400;2023-02-03T11:05:22;10.60;99.90
17333;DHT22;8784;50.94667800;7.08448400;2023-02-03T11:07:53;10.60;99.90
17333;DHT22;8784;50.94667800;7.08448400;2023-02-03T11:10:30;10.60;99.90
17333;DHT22;8784;50.94667800;7.08448400;2023-02-03T11:13:18;10.60;99.90
17333;DHT22;8784;50.94667800;7.08448400;2023-02-03T11:16:09;10.60;99.90
17333;DHT22;8784;50.94667800;7.08448400;2023-02-03T11:18:40;10.70;99.90
17333;DHT22;8784;50.94667800;7.08448400;2023-02-03T11:21:10;10.60;99.90
17333;DHT22;8784;50.94667800;7.08448400;2023-02-03T11:23:48;10.60;99.90
17333;DHT22;8784;50.94667800;7.08448400;2023-02-03T11:26:19;10.70;99.90
17333;DHT22;8784;50.94667800;7.08448400;2023-02-03T11:28:49;10.70;99.90
17333;DHT22;8784;50.94667800;7.08448400;2023-02-03T11:31:20;10.70;99.90
17333;DHT22;8784;50.94667800;7.08448400;2023-02-03T11:33:51;10.70;99.90
17333;DHT22;8784;50.94667800;7.08448400;2023-02-03T11:36:19;10.70;99.90
17333;DHT22;8784;50.94667800;7.08448400;2023-02-03T11:38:46;10.70;99.90
17333;DHT22;8784;50.94667800;7.08448400;2023-02-03T11:41:15;10.70;99.90
17333;DHT22;8784;50.94667800;7.08448400;2023-02-03T11:43:42;10.70;99.90
17333;DHT22;8784;50.94667800;7.08448400;2023-02-03T11:46:14;10.70;99.90
17333;DHT22;8784;50.94667800;7.08448400;2023-02-03T11:48:50;10.80;99.90
17333;DHT22;8784;50.94667800;7.08448400;2023-02-03T11:51:29;10.80;99.90
17333;DHT22;8784;50.94667800;7.08448400;2023-02-03T11:54:05;10.90;99.90
17333;DHT22;8784;50.94667800;7.08448400;2023-02-03T11:57:00;10.90;99.90
17333;DHT22;8784;50.94667800;7.08448400;2023-02-03T11:59:49;10.90;99.90
17333;DHT22;8784;50.94667800;7.08448400;2023-02-03T12:05:41;10.90;99.90
17333;DHT22;8784;50.94667800;7.08448400;2023-02-03T12:08:21;10.90;99.90
17333;DHT22;8784;50.94667800;7.08448400;2023-02-03T12:10:59;10.90;99.90
17333;DHT22;8784;50.94667800;7.08448400;2023-02-03T12:13:50;10.90;99.90
17333;DHT22;8784;50.94667800;7.08448400;2023-02-03T12:16:47;10.90;99.90
17333;DHT22;8784;50.94667800;7.08448400;2023-02-03T12:19:28;10.90;99.90
17333;DHT22;8784;50.94667800;7.08448400;2023-02-03T12:22:07;10.90;99.90
17333;DHT22;8784;50.94667800;7.08448400;2023-02-03T12:24:46;10.90;99.90
17333;DHT22;8784;50.94667800;7.08448400;2023-02-03T12:27:24;10.90;99.90
17333;DHT22;8784;50.94667800;7.08448400;2023-02-03T12:29:59;10.90;99.90
17333;DHT22;8784;50.94667800;7.08448400;2023-02-03T12:32:33;10.90;99.90
17333;DHT22;8784;50.94667800;7.08448400;2023-02-03T12:35:14;11.00;99.90
17333;DHT22;8784;50.94667800;7.08448400;2023-02-03T12:37:47;11.00;99.90
17333;DHT22;8784;50.94667800;7.08448400;2023-02-03T12:40:19;11.00;99.90
17333;DHT22;8784;50.94667800;7.08448400;2023-02-03T12:42:51;11.00;99.90
17333;DHT22;8784;50.94667800;7.08448400;2023-02-03T12:45:22;11.00;99.90
17333;DHT22;8784;50.94667800;7.08448400;2023-02-03T12:47:54;11.00;99.90
17333;DHT22;8784;50.94667800;7.08448400;2023-02-03T12:50:28;11.00;99.90
17333;DHT22;8784;50.94667800;7.08448400;2023-02-03T12:53:00;11.00;99.90
17333;DHT22;8784;50.94667800;7.08448400;2023-02-03T12:55:34;11.00;99.90
17333;DHT22;8784;50.94667800;7.08448400;2023-02-03T12:58:04;11.00;99.90
17333;DHT22;8784;50.94667800;7.08448400;2023-02-03T13:00:44;11.00;99.90
17333;DHT22;8784;50.94667800;7.08448400;2023-02-03T13:03:16;11.10;99.90
17333;DHT22;8784;50.94667800;7.08448400;2023-02-03T13:05:49;11.10;99.90
17333;DHT22;8784;50.94667800;7.08448400;2023-02-03T13:08:33;11.10;99.90
17333;DHT22;8784;50.94667800;7.08448400;2023-02-03T13:11:16;11.10;99.90
17333;DHT22;8784;50.94667800;7.08448400;2023-02-03T13:13:51;11.10;99.90
17333;DHT22;8784;50.94667800;7.08448400;2023-02-03T13:16:35;11.10;99.90
17333;DHT22;8784;50.94667800;7.08448400;2023-02-03T13:19:14;11.10;99.90
17333;DHT22;8784;50.94667800;7.08448400;2023-02-03T13:21:48;11.10;99.90
17333;DHT22;8784;50.94667800;7.08448400;2023-02-03T13:24:22;11.00;99.90
17333;DHT22;8784;50.94667800;7.08448400;2023-02-03T13:27:35;11.00;99.90
17333;DHT22;8784;50.94667800;7.08448400;2023-02-03T13:30:21;11.00;99.90
17333;DHT22;8784;50.94667800;7.08448400;2023-02-03T13:33:09;10.90;99.90
17333;DHT22;8784;50.94667800;7.08448400;2023-02-03T13:35:52;10.90;99.90
17333;DHT22;8784;50.94667800;7.08448400;2023-02-03T13:38:53;10.80;99.90
17333;DHT22;8784;50.94667800;7.08448400;2023-02-03T13:41:43;10.70;99.90
17333;DHT22;8784;50.94667800;7.08448400;2023-02-03T13:44:17;10.60;99.90
17333;DHT22;8784;50.94667800;7.08448400;2023-02-03T13:46:58;10.60;99.90
17333;DHT22;8784;50.94667800;7.08448400;2023-02-03T13:49:29;10.70;99.90
17333;DHT22;8784;50.94667800;7.08448400;2023-02-03T13:51:57;10.60;99.90
17333;DHT22;8784;50.94667800;7.08448400;2023-02-03T13:54:27;10.60;99.90
17333;DHT22;8784;50.94667800;7.08448400;2023-02-03T13:56:59;10.60;99.90
17333;DHT22;8784;50.94667800;7.08448400;2023-02-03T13:59:38;10.60;99.90
17333;DHT22;8784;50.94667800;7.08448400;2023-02-03T14:02:29;10.60;99.90
17333;DHT22;8784;50.94667800;7.08448400;2023-02-03T14:04:58;10.50;99.90
17333;DHT22;8784;50.94667800;7.08448400;2023-02-03T14:07:30;10.60;99.90
17333;DHT22;8784;50.94667800;7.08448400;2023-02-03T14:10:14;10.60;99.90